EGPD/ABZ METAR and TAF weather

Enter ICAO airport designator
Station Type Date Time Source
EGPD METAR 2018/04/21 11:20 UTC NOAA

EGPD 211120Z AUTO 19015KT 9999 FEW043 15/05 Q1019


Station Type Date Time Source
EGPD Decoded METAR 2018/04/21 11:20 UTC NOAA

Aberdeen / Dyce, United Kingdom (EGPD) 57-12N 002-13W 0M
Apr 21, 2018 - 07:20 AM EDT / 2018.04.21 1120 UTC
Wind: from the S (190 degrees) at 17 MPH (15 KT):0
Visibility: greater than 7 mile(s):0
Sky conditions: mostly clear
Temperature: 59 F (15 C)
Dew Point: 41 F (5 C)
Relative Humidity: 51%
Pressure (altimeter): 30.09 in. Hg (1019 hPa)
ob: EGPD 211120Z AUTO 19015KT 9999 FEW043 15/05 Q1019
cycle: 11

Station Type Date Time Source
EGPD TAF 2018/04/21 12:15 UTC NOAA

TAF EGPD 211054Z 2112/2212 18010KT 9999 SCT035
TEMPO 2202/2205 6000 SHRA BKN004 PROB40
TEMPO 2203/2209 2000 BR BKN001
TEMPO 2210/2212 6000 RA


Example: see airport list